Time;durP1;ratioP1;P1;durP2;ratioP2;P2;SDS_P1;SDS_P2;PMS_P1;PMS_P2;Temp;Humidity;BMP_temperature;BMP_pressure;BME280_temperature;BME280_humidity;BME280_pressure;Samples;Min_cycle;Max_cycle;Signal;HPM_P1;HPM_P2
2022/06/08 00:00:06;;;;;;;7.60;3.88;;;10.40;99.90;;;;;;4998930;28;20042;-81
2022/06/08 00:02:32;;;;;;;8.35;3.70;;;10.40;99.90;;;;;;5000641;28;20060;-81
2022/06/08 00:04:59;;;;;;;8.55;4.10;;;10.40;99.90;;;;;;4998666;28;20060;-81
2022/06/08 00:07:24;;;;;;;11.35;4.32;;;10.40;99.90;;;;;;4996371;28;20049;-81
2022/06/08 00:09:50;;;;;;;7.72;3.92;;;10.40;99.90;;;;;;4998777;28;20074;-81
2022/06/08 00:12:16;;;;;;;8.38;3.95;;;10.40;99.90;;;;;;4996674;28;20045;-81
2022/06/08 00:14:42;;;;;;;7.63;4.00;;;10.40;99.90;;;;;;4992294;28;20065;-80
2022/06/08 00:17:09;;;;;;;7.68;4.45;;;10.30;99.90;;;;;;4999600;28;20042;-80
2022/06/08 00:19:35;;;;;;;8.57;3.80;;;10.30;99.90;;;;;;4994896;28;20516;-81
2022/06/08 00:22:01;;;;;;;8.98;4.45;;;10.30;99.90;;;;;;4992875;28;20081;-81
2022/06/08 00:24:27;;;;;;;10.00;4.57;;;10.30;99.90;;;;;;4994124;28;20057;-81
2022/06/08 00:26:53;;;;;;;8.40;4.18;;;10.20;99.90;;;;;;4997803;28;20379;-81
2022/06/08 00:29:19;;;;;;;9.15;5.07;;;10.20;99.90;;;;;;4988066;28;20061;-81
2022/06/08 00:31:44;;;;;;;10.43;4.38;;;10.20;99.90;;;;;;4997296;28;20460;-81
2022/06/08 00:34:12;;;;;;;8.25;4.05;;;10.20;99.90;;;;;;4989457;28;20833;-81
2022/06/08 00:36:38;;;;;;;9.68;4.40;;;10.30;99.90;;;;;;5013884;28;20818;-81
2022/06/08 00:39:04;;;;;;;12.05;4.85;;;10.20;99.90;;;;;;4983640;28;20038;-81
2022/06/08 00:41:59;;;;;;;9.50;5.00;;;10.20;99.90;;;;;;4996016;28;20084;-81
2022/06/08 00:44:30;;;;;;;8.35;4.32;;;10.20;99.90;;;;;;4995132;28;20049;-81
2022/06/08 00:46:58;;;;;;;11.50;4.68;;;10.10;99.90;;;;;;5000739;28;20049;-81
2022/06/08 00:49:46;;;;;;;8.45;4.80;;;10.20;99.90;;;;;;4994855;28;20046;-81
2022/06/08 00:52:13;;;;;;;8.55;4.20;;;10.10;99.90;;;;;;4998056;28;20062;-81
2022/06/08 00:54:42;;;;;;;8.35;4.38;;;10.00;99.90;;;;;;4989205;28;20049;-81
2022/06/08 00:57:17;;;;;;;9.70;6.30;;;10.00;99.90;;;;;;5003038;28;20065;-81
2022/06/08 00:59:54;;;;;;;9.73;5.30;;;10.00;99.90;;;;;;4989796;28;20084;-81
2022/06/08 01:02:19;;;;;;;9.52;4.85;;;10.00;99.90;;;;;;4992152;28;20659;-81
2022/06/08 01:04:45;;;;;;;9.63;5.43;;;10.00;99.90;;;;;;4999874;28;20135;-81
2022/06/08 01:07:18;;;;;;;9.82;5.40;;;10.00;99.90;;;;;;4999585;28;20050;-81
2022/06/08 01:09:44;;;;;;;7.15;5.20;;;10.00;99.90;;;;;;4983691;28;20054;-81
2022/06/08 01:12:20;;;;;;;10.80;4.50;;;10.00;99.90;;;;;;4995501;28;20049;-81
2022/06/08 01:14:47;;;;;;;12.20;5.50;;;10.00;99.90;;;;;;4988768;28;20037;-81
2022/06/08 01:17:16;;;;;;;11.20;5.40;;;10.00;99.90;;;;;;4990740;28;20046;-81
2022/06/08 01:19:47;;;;;;;9.30;5.32;;;10.00;99.90;;;;;;4994700;28;20166;-81
2022/06/08 01:22:17;;;;;;;8.88;5.22;;;10.00;99.90;;;;;;4997335;28;20045;-81
2022/06/08 01:24:48;;;;;;;9.20;5.00;;;10.00;99.90;;;;;;4993918;28;20054;-81
2022/06/08 01:27:18;;;;;;;10.93;4.47;;;9.90;99.90;;;;;;4995762;28;20188;-81
2022/06/08 01:30:13;;;;;;;10.75;4.68;;;9.90;99.90;;;;;;4990067;28;20126;-81
2022/06/08 01:33:17;;;;;;;10.95;5.38;;;9.90;99.90;;;;;;4984159;28;20719;-81
2022/06/08 01:36:00;;;;;;;16.50;6.13;;;9.90;99.90;;;;;;4990281;28;20142;-82
2022/06/08 01:38:38;;;;;;;9.95;4.82;;;9.90;99.90;;;;;;4984543;28;20580;-81
2022/06/08 01:41:43;;;;;;;10.75;5.53;;;9.90;99.90;;;;;;4995153;28;20050;-81
2022/06/08 01:44:23;;;;;;;8.23;5.10;;;9.90;99.90;;;;;;4987274;28;20506;-81
2022/06/08 01:47:11;;;;;;;6.35;3.95;;;9.90;99.90;;;;;;4997470;28;20667;-81
2022/06/08 01:49:57;;;;;;;9.18;5.55;;;9.90;99.90;;;;;;5002643;28;20152;-81
2022/06/08 01:52:56;;;;;;;8.88;5.90;;;9.90;99.90;;;;;;4992948;28;20053;-81
2022/06/08 01:55:52;;;;;;;13.63;6.20;;;9.90;99.90;;;;;;4982036;28;20054;-81
2022/06/08 01:58:27;;;;;;;9.77;4.80;;;9.90;99.90;;;;;;4996189;28;20053;-81
2022/06/08 02:01:02;;;;;;;9.93;5.90;;;9.90;99.90;;;;;;4992408;28;20074;-81
2022/06/08 02:03:38;;;;;;;7.93;4.70;;;9.90;99.90;;;;;;5004319;28;20671;-81
2022/06/08 02:06:11;;;;;;;10.80;5.05;;;9.90;99.90;;;;;;4991970;28;20057;-82
2022/06/08 02:08:44;;;;;;;8.05;5.43;;;9.90;99.90;;;;;;4984053;28;20050;-81
2022/06/08 02:11:30;;;;;;;8.00;5.05;;;10.00;99.90;;;;;;4989807;28;20150;-82
2022/06/08 02:14:01;;;;;;;9.90;5.35;;;9.90;99.90;;;;;;4997486;28;20059;-81
2022/06/08 02:16:39;;;;;;;11.07;5.88;;;10.30;99.90;;;;;;4997764;28;20488;-82
2022/06/08 02:19:08;;;;;;;12.35;5.97;;;9.90;99.90;;;;;;4987671;28;20116;-82
2022/06/08 02:21:42;;;;;;;10.13;6.15;;;9.90;99.90;;;;;;4999160;28;20050;-81
2022/06/08 02:24:22;;;;;;;12.80;6.75;;;9.90;99.90;;;;;;4987162;28;20054;-81
2022/06/08 02:26:54;;;;;;;11.82;6.60;;;9.90;99.90;;;;;;4999082;28;20181;-82
2022/06/08 02:29:25;;;;;;;13.90;6.90;;;9.90;99.90;;;;;;4998957;28;20050;-81
2022/06/08 02:32:01;;;;;;;10.32;6.38;;;9.90;99.90;;;;;;4996619;28;20485;-81
2022/06/08 02:34:37;;;;;;;11.75;6.32;;;9.90;99.90;;;;;;4999746;28;20041;-82
2022/06/08 02:37:13;;;;;;;17.80;7.20;;;9.90;99.90;;;;;;5002194;28;20156;-81
2022/06/08 02:39:51;;;;;;;12.30;7.10;;;9.90;99.90;;;;;;4995910;28;20041;-82
2022/06/08 02:42:23;;;;;;;11.35;6.90;;;9.90;99.90;;;;;;4997067;28;20184;-82
2022/06/08 02:44:53;;;;;;;13.45;7.18;;;9.90;99.90;;;;;;4998996;28;20062;-82
2022/06/08 02:47:32;;;;;;;11.90;7.30;;;10.20;99.90;;;;;;4996799;28;20088;-82
2022/06/08 02:50:07;;;;;;;12.32;7.53;;;10.10;99.90;;;;;;4997029;28;20697;-82
2022/06/08 02:52:33;;;;;;;12.77;7.18;;;9.90;99.90;;;;;;4994215;28;20045;-81
2022/06/08 02:54:59;;;;;;;13.95;8.50;;;9.90;99.90;;;;;;4979709;28;20088;-81
2022/06/08 02:57:37;;;;;;;14.55;9.23;;;9.90;99.90;;;;;;4989320;28;20062;-82
2022/06/08 03:00:14;;;;;;;18.63;8.63;;;9.90;99.90;;;;;;4997121;28;20157;-82
2022/06/08 03:02:45;;;;;;;14.32;9.65;;;9.90;99.90;;;;;;4987791;28;20514;-82
2022/06/08 03:05:28;;;;;;;17.33;9.35;;;9.90;99.90;;;;;;4979972;28;20050;-81
2022/06/08 03:07:58;;;;;;;15.45;7.50;;;10.10;99.90;;;;;;4989705;28;20061;-82
2022/06/08 03:10:26;;;;;;;13.73;8.45;;;9.90;99.90;;;;;;4998657;28;20056;-82
2022/06/08 03:13:02;;;;;;;15.93;9.27;;;9.90;99.90;;;;;;4995586;28;20072;-82
2022/06/08 03:15:28;;;;;;;13.43;9.20;;;9.90;99.90;;;;;;4979295;28;20038;-82
2022/06/08 03:17:54;;;;;;;20.67;10.98;;;9.90;99.90;;;;;;4986145;28;20046;-82
2022/06/08 03:20:22;;;;;;;16.48;9.85;;;9.90;99.90;;;;;;4999447;28;20068;-82
2022/06/08 03:22:48;;;;;;;15.00;8.85;;;9.90;99.90;;;;;;4996844;28;20073;-82
2022/06/08 03:25:15;;;;;;;18.02;10.57;;;9.90;99.90;;;;;;4998141;28;20379;-82
2022/06/08 03:27:45;;;;;;;19.75;11.00;;;9.90;99.90;;;;;;4997393;28;20123;-82
2022/06/08 03:30:12;;;;;;;19.90;11.18;;;10.00;99.90;;;;;;4997096;28;20041;-82
2022/06/08 03:32:39;;;;;;;18.15;10.57;;;9.90;99.90;;;;;;4994185;28;20785;-82
2022/06/08 03:35:06;;;;;;;16.00;9.63;;;10.10;99.90;;;;;;4996598;28;20046;-82
2022/06/08 03:37:33;;;;;;;16.52;10.70;;;10.00;99.90;;;;;;4998225;28;20053;-82
2022/06/08 03:39:58;;;;;;;17.17;10.90;;;10.00;99.90;;;;;;4989422;28;20133;-82
2022/06/08 03:42:24;;;;;;;22.83;11.68;;;10.00;99.90;;;;;;4994155;28;20056;-82
2022/06/08 03:44:51;;;;;;;20.77;11.93;;;10.00;99.90;;;;;;4995978;28;20057;-82
2022/06/08 03:47:20;;;;;;;19.48;12.00;;;10.00;99.90;;;;;;4995518;28;20046;-82
2022/06/08 03:49:47;;;;;;;18.20;11.77;;;10.00;99.90;;;;;;4995072;28;20050;-82
2022/06/08 03:52:20;;;;;;;19.02;11.10;;;10.10;99.90;;;;;;4995211;28;20038;-82
2022/06/08 03:54:50;;;;;;;21.17;10.98;;;10.10;99.90;;;;;;4983939;28;21039;-82
2022/06/08 03:57:17;;;;;;;23.92;12.55;;;10.10;99.90;;;;;;5002377;28;20057;-83
2022/06/08 03:59:46;;;;;;;17.20;10.15;;;10.10;99.90;;;;;;4984353;28;20137;-83
2022/06/08 04:02:12;;;;;;;18.73;10.73;;;10.10;99.90;;;;;;4991597;28;20076;-82
2022/06/08 04:04:40;;;;;;;22.08;13.52;;;10.20;99.90;;;;;;4995560;28;20046;-82
2022/06/08 04:07:07;;;;;;;26.05;13.48;;;10.20;99.90;;;;;;4993609;28;20707;-81
2022/06/08 04:09:33;;;;;;;21.50;12.13;;;10.20;99.90;;;;;;4996808;28;20152;-82
2022/06/08 04:12:00;;;;;;;21.33;12.40;;;10.20;99.90;;;;;;5000028;28;20041;-82
2022/06/08 04:14:26;;;;;;;17.92;11.52;;;10.30;99.90;;;;;;5002814;28;20049;-82
2022/06/08 04:16:52;;;;;;;23.92;13.85;;;10.30;99.90;;;;;;4996189;28;20046;-82
2022/06/08 04:19:19;;;;;;;21.40;12.85;;;10.30;99.90;;;;;;4991448;28;20066;-82
2022/06/08 04:21:45;;;;;;;19.42;11.80;;;10.40;99.90;;;;;;4998214;28;20054;-82
2022/06/08 04:24:13;;;;;;;22.92;12.95;;;10.40;99.90;;;;;;4999581;28;20092;-82
2022/06/08 04:26:40;;;;;;;18.30;12.85;;;10.50;99.90;;;;;;4994702;28;20045;-82
2022/06/08 04:29:07;;;;;;;18.63;11.73;;;10.50;99.90;;;;;;5000038;28;20052;-83
2022/06/08 04:31:34;;;;;;;22.90;14.20;;;10.50;99.90;;;;;;4995115;28;20037;-82
2022/06/08 04:34:02;;;;;;;27.13;14.35;;;10.60;99.90;;;;;;5014944;28;20050;-82
2022/06/08 04:36:29;;;;;;;24.38;14.40;;;10.70;99.90;;;;;;4997541;28;20144;-82
2022/06/08 04:38:54;;;;;;;25.33;14.18;;;10.80;99.90;;;;;;4997811;28;20547;-82
2022/06/08 04:41:21;;;;;;;24.55;14.68;;;11.00;99.90;;;;;;4996287;28;20160;-82
2022/06/08 04:43:50;;;;;;;24.25;14.82;;;11.20;99.90;;;;;;4988297;28;20046;-82
2022/06/08 04:46:17;;;;;;;27.02;15.25;;;11.40;99.90;;;;;;4987395;28;20056;-82
2022/06/08 04:48:44;;;;;;;24.33;15.93;;;11.50;99.90;;;;;;4997489;28;20779;-82
2022/06/08 04:51:14;;;;;;;22.77;14.93;;;11.60;99.90;;;;;;4994922;28;20054;-83
2022/06/08 04:53:41;;;;;;;24.52;15.32;;;11.70;99.90;;;;;;4984361;28;20221;-84
2022/06/08 04:56:08;;;;;;;24.25;15.98;;;11.80;99.90;;;;;;4992973;28;20053;-82
2022/06/08 04:58:34;;;;;;;21.83;14.70;;;11.90;99.90;;;;;;5003330;28;20393;-82
2022/06/08 05:01:00;;;;;;;25.48;15.05;;;12.00;99.90;;;;;;4990925;28;20160;-83
2022/06/08 05:03:27;;;;;;;23.92;15.57;;;12.10;99.90;;;;;;4999613;28;20046;-83
2022/06/08 05:05:53;;;;;;;27.98;16.48;;;12.20;99.90;;;;;;5003642;28;20130;-82
2022/06/08 05:08:20;;;;;;;28.33;16.40;;;12.20;99.90;;;;;;5000807;28;20061;-84
2022/06/08 05:10:48;;;;;;;22.90;16.48;;;12.50;99.90;;;;;;4999537;28;20496;-85
2022/06/08 05:13:14;;;;;;;27.45;16.83;;;12.30;99.90;;;;;;4998727;28;20518;-87
2022/06/08 05:15:42;;;;;;;29.20;16.30;;;12.40;99.90;;;;;;4991195;28;20787;-83
2022/06/08 05:18:10;;;;;;;23.50;16.27;;;12.50;99.90;;;;;;4993314;28;20775;-82
2022/06/08 05:20:37;;;;;;;26.77;16.63;;;12.60;99.90;;;;;;4981941;28;20769;-84
2022/06/08 05:23:04;;;;;;;23.98;15.77;;;12.60;99.90;;;;;;4998453;28;20572;-83
2022/06/08 05:25:36;;;;;;;28.40;16.25;;;12.60;99.90;;;;;;5001339;28;20045;-82
2022/06/08 05:28:04;;;;;;;25.35;16.92;;;12.60;99.90;;;;;;5000274;28;20072;-83
2022/06/08 05:30:32;;;;;;;25.52;16.10;;;12.60;99.90;;;;;;5002750;28;20492;-82
2022/06/08 05:32:58;;;;;;;26.02;17.15;;;12.70;99.90;;;;;;4999683;28;20966;-82
2022/06/08 05:35:24;;;;;;;27.02;16.80;;;12.70;99.90;;;;;;4996334;28;20473;-83
2022/06/08 05:37:50;;;;;;;28.15;17.27;;;12.70;99.90;;;;;;5000064;28;20141;-82
2022/06/08 05:40:16;;;;;;;27.38;17.17;;;12.80;99.90;;;;;;4998970;28;20037;-83
2022/06/08 05:42:42;;;;;;;27.05;17.77;;;12.80;99.90;;;;;;5002560;28;20092;-82
2022/06/08 05:45:14;;;;;;;29.35;17.92;;;12.90;99.90;;;;;;4995036;28;20077;-81
2022/06/08 05:47:39;;;;;;;28.77;17.05;;;13.00;99.90;;;;;;4998156;28;20042;-82
2022/06/08 05:50:05;;;;;;;29.13;17.95;;;13.30;99.90;;;;;;4992260;28;20933;-82
2022/06/08 05:52:31;;;;;;;27.00;16.80;;;13.10;99.90;;;;;;4993010;28;20054;-81
2022/06/08 05:54:57;;;;;;;28.63;18.58;;;13.20;99.90;;;;;;4997462;28;20052;-81
2022/06/08 05:57:22;;;;;;;27.20;17.88;;;13.30;99.90;;;;;;4994325;28;20049;-79
2022/06/08 05:59:49;;;;;;;31.25;17.30;;;13.40;99.90;;;;;;4997218;28;20042;-80
2022/06/08 06:02:15;;;;;;;32.65;18.55;;;13.50;99.90;;;;;;4996368;28;20117;-80
2022/06/08 06:04:42;;;;;;;26.38;17.17;;;13.60;99.90;;;;;;4994017;28;20046;-79
2022/06/08 06:07:09;;;;;;;24.45;17.10;;;13.70;99.90;;;;;;4995849;28;20048;-81
2022/06/08 06:09:35;;;;;;;25.98;17.65;;;13.80;99.90;;;;;;4988037;28;20053;-80
2022/06/08 06:12:00;;;;;;;23.52;16.42;;;14.00;99.90;;;;;;4996425;28;20038;-81
2022/06/08 06:14:26;;;;;;;27.13;17.58;;;14.00;99.90;;;;;;4997512;28;20050;-80
2022/06/08 06:16:52;;;;;;;25.98;16.73;;;14.10;99.90;;;;;;4996294;28;20056;-80
2022/06/08 06:19:17;;;;;;;27.17;18.65;;;14.00;99.90;;;;;;4988212;28;20065;-80
2022/06/08 06:21:43;;;;;;;26.65;17.92;;;14.10;99.90;;;;;;4986928;28;20084;-78
2022/06/08 06:24:09;;;;;;;28.02;17.02;;;14.20;99.90;;;;;;4977648;28;20042;-80
2022/06/08 06:26:34;;;;;;;24.10;16.52;;;14.30;99.90;;;;;;4983953;28;20050;-80
2022/06/08 06:29:00;;;;;;;28.23;17.80;;;14.40;99.90;;;;;;4995057;28;20053;-80
2022/06/08 06:31:50;;;;;;;27.15;17.48;;;14.50;99.90;;;;;;4984588;28;20135;-80
2022/06/08 06:34:18;;;;;;;25.45;16.27;;;14.60;99.90;;;;;;4987671;28;20058;-81
2022/06/08 06:36:44;;;;;;;21.85;15.68;;;14.70;99.90;;;;;;4996583;28;20220;-79
2022/06/08 06:39:10;;;;;;;24.70;15.70;;;14.80;99.90;;;;;;4981276;28;20140;-80
2022/06/08 06:41:36;;;;;;;23.42;14.95;;;14.90;99.90;;;;;;4993843;28;20484;-80
2022/06/08 06:44:02;;;;;;;19.48;14.70;;;15.00;99.90;;;;;;4989211;28;20083;-80
2022/06/08 06:46:28;;;;;;;22.80;14.32;;;15.20;99.90;;;;;;4989680;28;20034;-80
2022/06/08 06:48:54;;;;;;;20.80;14.18;;;15.30;99.90;;;;;;4987335;28;20050;-81
2022/06/08 06:51:19;;;;;;;21.92;13.23;;;15.40;99.90;;;;;;4979999;28;20580;-83
2022/06/08 06:53:45;;;;;;;19.25;13.35;;;15.50;99.90;;;;;;4994339;28;20085;-84
2022/06/08 06:56:10;;;;;;;20.88;12.90;;;15.70;99.90;;;;;;4996459;28;20615;-84
2022/06/08 06:58:37;;;;;;;18.73;12.77;;;15.80;99.90;;;;;;4979712;28;20445;-84
2022/06/08 07:01:04;;;;;;;19.33;12.65;;;15.90;99.90;;;;;;4992674;28;20060;-84
2022/06/08 07:03:30;;;;;;;19.95;12.20;;;16.10;99.90;;;;;;4998966;28;20045;-85
2022/06/08 07:05:55;;;;;;;16.55;11.48;;;16.20;99.90;;;;;;4981289;28;20066;-84
2022/06/08 07:08:21;;;;;;;19.55;12.32;;;16.30;99.90;;;;;;4980013;28;20771;-84
2022/06/08 07:13:31;;;;;;;15.30;11.63;;;16.40;99.90;;;;;;4997466;28;20053;-85
2022/06/08 07:15:56;;;;;;;20.80;11.57;;;16.50;99.90;;;;;;4995174;28;20049;-85
2022/06/08 07:18:22;;;;;;;16.70;10.90;;;16.50;99.90;;;;;;4979422;28;20054;-85
2022/06/08 07:20:47;;;;;;;16.85;10.90;;;16.60;99.90;;;;;;4979445;28;20112;-85
2022/06/08 07:23:13;;;;;;;15.82;10.85;;;16.80;99.90;;;;;;4979206;28;20405;-85
2022/06/08 07:25:39;;;;;;;13.48;9.10;;;16.90;99.90;;;;;;4985429;28;20055;-85
2022/06/08 07:28:06;;;;;;;12.77;8.15;;;17.00;99.90;;;;;;4996457;28;20168;-85
2022/06/08 07:30:32;;;;;;;13.05;8.23;;;17.20;99.90;;;;;;4996874;28;20046;-86
2022/06/08 07:32:57;;;;;;;11.23;7.30;;;17.40;99.90;;;;;;4979580;28;20057;-86
2022/06/08 07:35:23;;;;;;;11.05;7.32;;;17.50;99.90;;;;;;4980047;28;21804;-85
2022/06/08 07:37:49;;;;;;;11.27;6.72;;;17.70;99.90;;;;;;4979250;28;20081;-85
2022/06/08 07:40:15;;;;;;;10.70;6.13;;;17.90;99.90;;;;;;4981618;28;20052;-86
2022/06/08 07:42:40;;;;;;;8.57;5.10;;;18.00;99.90;;;;;;4995123;28;20046;-86
2022/06/08 07:45:07;;;;;;;8.13;5.55;;;18.20;99.90;;;;;;4998998;28;20056;-85
2022/06/08 07:47:33;;;;;;;13.20;5.57;;;18.20;99.90;;;;;;5002819;28;20056;-85
2022/06/08 07:49:59;;;;;;;8.50;5.00;;;18.20;99.90;;;;;;5000786;28;20049;-86
2022/06/08 07:52:24;;;;;;;8.93;4.53;;;18.30;99.90;;;;;;5002730;28;20133;-86
2022/06/08 07:54:50;;;;;;;7.15;4.50;;;18.20;99.90;;;;;;4994622;28;20077;-86
2022/06/08 07:57:23;;;;;;;8.07;4.30;;;18.30;99.90;;;;;;4983449;28;20061;-86
2022/06/08 07:59:49;;;;;;;6.82;4.45;;;18.30;99.90;;;;;;4994483;28;20046;-86
2022/06/08 08:02:15;;;;;;;6.72;3.78;;;18.30;99.90;;;;;;4982348;28;20057;-87
2022/06/08 08:04:41;;;;;;;7.63;4.68;;;18.30;99.90;;;;;;4994627;28;20050;-87
2022/06/08 08:07:07;;;;;;;9.27;4.32;;;18.30;99.90;;;;;;5000422;28;20056;-87
2022/06/08 08:09:34;;;;;;;9.63;4.95;;;18.40;99.90;;;;;;4996063;28;20050;-88
2022/06/08 08:12:00;;;;;;;7.88;4.50;;;18.50;99.90;;;;;;4986458;28;20042;-86
2022/06/08 08:14:26;;;;;;;7.10;4.85;;;18.50;99.90;;;;;;4994072;28;20060;-86
2022/06/08 08:16:53;;;;;;;8.13;4.68;;;18.50;99.90;;;;;;4990644;28;20050;-86
2022/06/08 08:19:21;;;;;;;7.20;4.32;;;18.60;99.90;;;;;;4996603;28;20050;-87
2022/06/08 08:21:47;;;;;;;7.55;4.20;;;18.70;99.90;;;;;;4997834;28;20085;-86
2022/06/08 08:24:13;;;;;;;5.95;3.17;;;18.80;99.90;;;;;;4999006;28;20512;-88
2022/06/08 08:26:39;;;;;;;7.55;3.50;;;18.80;99.90;;;;;;5001968;28;20130;-89
2022/06/08 08:29:05;;;;;;;7.68;3.42;;;18.90;99.90;;;;;;5001033;28;20417;-87
2022/06/08 08:31:32;;;;;;;7.97;4.50;;;18.90;99.90;;;;;;4993299;28;20038;-89
2022/06/08 08:33:59;;;;;;;6.45;3.25;;;19.10;99.90;;;;;;5000126;28;20043;-88
2022/06/08 08:36:25;;;;;;;6.65;3.15;;;19.20;99.90;;;;;;5001811;28;20045;-89
2022/06/08 08:38:50;;;;;;;6.90;3.15;;;19.30;99.90;;;;;;4999626;28;20057;-87
2022/06/08 08:44:30;;;;;;;5.22;2.85;;;19.60;99.90;;;;;;4997853;28;20077;-87
2022/06/08 08:47:24;;;;;;;8.10;2.50;;;19.70;99.90;;;;;;4993017;28;20054;-86
2022/06/08 08:49:57;;;;;;;4.20;2.40;;;19.90;99.90;;;;;;4998458;28;20556;-87
2022/06/08 08:52:38;;;;;;;6.05;2.42;;;19.90;99.90;;;;;;4994388;28;20070;-88
2022/06/08 08:55:33;;;;;;;4.88;2.80;;;20.00;99.90;;;;;;4998550;28;20053;-88
2022/06/08 08:58:08;;;;;;;;;;;19.80;99.90;;;;;;4987935;28;20543;-89
2022/06/08 09:00:40;;;;;;;4.35;1.92;;;19.80;99.90;;;;;;4991672;28;19926;-89
2022/06/08 09:03:25;;;;;;;4.28;2.00;;;19.90;99.90;;;;;;4994133;28;20054;-88
2022/06/08 09:06:00;;;;;;;4.22;1.50;;;20.10;99.90;;;;;;4997334;28;20167;-84
2022/06/08 09:08:27;;;;;;;5.47;1.88;;;20.30;99.90;;;;;;4997019;28;20042;-86
2022/06/08 09:10:57;;;;;;;9.70;1.67;;;20.50;99.90;;;;;;5001024;28;20611;-87
2022/06/08 09:13:51;;;;;;;5.32;1.70;;;20.60;99.90;;;;;;4998012;28;20137;-85
2022/06/08 09:16:40;;;;;;;5.05;2.00;;;20.70;99.90;;;;;;4999318;28;20072;-87
2022/06/08 09:19:21;;;;;;;4.25;1.50;;;20.80;99.90;;;;;;5000944;28;20057;-86
2022/06/08 09:21:51;;;;;;;6.30;1.70;;;20.80;99.90;;;;;;4998963;28;20153;-87
2022/06/08 09:24:35;;;;;;;5.68;1.60;;;20.90;99.90;;;;;;4983882;28;20046;-84
2022/06/08 09:27:22;;;;;;;4.18;2.00;;;21.10;99.90;;;;;;4984625;28;20101;-84
2022/06/08 09:30:05;;;;;;;4.60;1.88;;;21.30;99.90;;;;;;5003042;28;20057;-85
2022/06/08 09:32:57;;;;;;;4.65;1.95;;;21.40;99.90;;;;;;4990188;28;20054;-84
2022/06/08 09:35:26;;;;;;;7.65;2.30;;;21.30;99.90;;;;;;4981673;28;20054;-84
2022/06/08 09:37:55;;;;;;;5.72;2.30;;;21.30;99.90;;;;;;4982463;28;20054;-84
2022/06/08 09:40:37;;;;;;;4.80;2.20;;;21.30;99.90;;;;;;4993114;28;20056;-84
2022/06/08 09:43:23;;;;;;;5.50;2.75;;;21.30;99.90;;;;;;4982199;28;20062;-84
2022/06/08 09:45:55;;;;;;;4.82;2.67;;;21.30;99.90;;;;;;4989102;28;20065;-84
2022/06/08 09:51:44;;;;;;;17.45;6.20;;;21.10;99.90;;;;;;5006865;28;20093;-84
2022/06/08 09:54:12;;;;;;;;;;;21.20;99.90;;;;;;5018459;28;20204;-84
2022/06/08 09:56:59;;;;;;;5.63;2.70;;;21.40;99.90;;;;;;5000487;28;20475;-84
2022/06/08 10:00:17;;;;;;;5.75;3.60;;;21.50;99.90;;;;;;5000853;28;20042;-84
2022/06/08 10:02:51;;;;;;;5.07;2.30;;;21.40;99.90;;;;;;4946166;28;20055;-84
2022/06/08 10:05:37;;;;;;;5.65;2.55;;;21.20;99.90;;;;;;4978463;28;20057;-84
2022/06/08 10:08:19;;;;;;;6.88;3.42;;;21.10;99.90;;;;;;4991479;28;20795;-83
2022/06/08 10:11:34;;;;;;;5.18;2.42;;;21.00;99.90;;;;;;4984706;28;20117;-84
2022/06/08 10:14:37;;;;;;;6.40;3.38;;;21.00;99.90;;;;;;4986165;28;20046;-83
2022/06/08 10:17:16;;;;;;;5.25;3.03;;;21.10;99.90;;;;;;4992217;28;20112;-81
2022/06/08 10:19:47;;;;;;;6.60;3.10;;;21.30;99.90;;;;;;4992005;28;20120;-81
2022/06/08 10:22:13;;;;;;;9.70;3.05;;;21.40;99.90;;;;;;4995036;28;20057;-82
2022/06/08 10:24:54;;;;;;;7.30;4.75;;;21.60;99.90;;;;;;4978049;28;20050;-83
2022/06/08 10:27:28;;;;;;;6.50;3.58;;;21.70;99.90;;;;;;4980467;28;20050;-82
2022/06/08 10:30:13;;;;;;;6.00;3.72;;;21.80;99.90;;;;;;4979171;28;20053;-83
2022/06/08 10:33:03;;;;;;;7.70;4.45;;;21.80;99.90;;;;;;4999952;28;20627;-82
2022/06/08 10:35:36;;;;;;;7.32;3.70;;;21.80;99.90;;;;;;4998046;28;20050;-83
2022/06/08 10:38:05;;;;;;;7.80;4.20;;;21.70;99.90;;;;;;5004294;28;20115;-82
2022/06/08 10:40:48;;;;;;;5.47;3.75;;;21.70;99.90;;;;;;4996768;28;20046;-83
2022/06/08 10:43:34;;;;;;;6.63;3.63;;;21.60;99.90;;;;;;5015216;28;20056;-82
2022/06/08 10:46:39;;;;;;;7.97;3.88;;;21.50;99.90;;;;;;4998678;28;20065;-82
2022/06/08 10:49:04;;;;;;;6.77;2.80;;;21.40;99.90;;;;;;4985354;28;20200;-82
2022/06/08 10:51:37;;;;;;;6.32;2.90;;;21.40;99.90;;;;;;4978941;28;20573;-83
2022/06/08 10:57:35;;;;;;;5.78;2.80;;;21.60;99.90;;;;;;4999469;28;20054;-82
2022/06/08 11:00:19;;;;;;;7.00;2.80;;;21.80;99.90;;;;;;4991628;28;20078;-82
2022/06/08 11:03:02;;;;;;;4.77;2.00;;;22.00;99.90;;;;;;4998197;28;20076;-82
2022/06/08 11:05:35;;;;;;;5.55;2.00;;;22.00;99.90;;;;;;4996114;28;20284;-82
2022/06/08 11:08:00;;;;;;;4.72;1.90;;;22.00;99.90;;;;;;4999194;28;20507;-83
2022/06/08 11:10:56;;;;;;;5.30;2.17;;;21.80;99.90;;;;;;5000837;28;20062;-82
2022/06/08 11:13:22;;;;;;;5.00;2.05;;;21.70;99.90;;;;;;4979336;28;20050;-82
2022/06/08 11:16:00;;;;;;;5.40;2.00;;;21.50;99.90;;;;;;4992394;28;20118;-82
2022/06/08 11:18:47;;;;;;;7.05;2.30;;;21.40;99.90;;;;;;5002716;28;20623;-82
2022/06/08 11:21:12;;;;;;;8.10;2.22;;;21.40;99.90;;;;;;4991964;28;20112;-82
2022/06/08 11:23:44;;;;;;;5.90;1.90;;;21.40;99.90;;;;;;5002149;28;20057;-82
2022/06/08 11:26:25;;;;;;;3.97;2.10;;;21.30;99.90;;;;;;4992824;28;20686;-83
2022/06/08 11:29:16;;;;;;;4.97;2.47;;;21.30;99.90;;;;;;5000906;28;20053;-82
2022/06/08 11:31:48;;;;;;;7.88;2.10;;;21.40;99.90;;;;;;5000780;28;20060;-82
2022/06/08 11:34:20;;;;;;;4.80;2.13;;;21.50;99.90;;;;;;4999152;28;20100;-82
2022/06/08 11:37:09;;;;;;;7.45;2.33;;;21.50;99.90;;;;;;4983772;28;20131;-82
2022/06/08 11:39:59;;;;;;;11.90;4.63;;;21.50;99.90;;;;;;4983530;28;20050;-83
2022/06/08 11:42:38;;;;;;;7.65;2.72;;;21.60;99.90;;;;;;4981452;28;20058;-83
2022/06/08 11:45:22;;;;;;;7.13;2.15;;;21.60;99.90;;;;;;4985258;28;20734;-82
2022/06/08 11:48:35;;;;;;;4.43;1.93;;;21.60;99.90;;;;;;4992145;28;20144;-83
2022/06/08 11:51:03;;;;;;;5.13;2.15;;;21.50;99.90;;;;;;4969748;28;20065;-82
2022/06/08 11:53:31;;;;;;;4.47;2.15;;;21.50;99.90;;;;;;5003337;28;20197;-83
2022/06/08 11:56:13;;;;;;;4.45;2.45;;;21.40;99.90;;;;;;5000359;28;20053;-83
2022/06/08 11:58:46;;;;;;;3.92;2.28;;;21.40;99.90;;;;;;4998005;28;20900;-82
2022/06/08 12:01:18;;;;;;;10.95;2.92;;;21.30;99.90;;;;;;5002308;28;20061;-82
2022/06/08 12:03:47;;;;;;;4.93;2.30;;;21.30;99.90;;;;;;5002556;28;20053;-82
2022/06/08 12:06:43;;;;;;;4.90;2.00;;;21.30;99.90;;;;;;4999168;28;20145;-77
2022/06/08 12:09:36;;;;;;;7.50;2.65;;;21.40;99.90;;;;;;4989213;28;20062;-81
2022/06/08 12:12:14;;;;;;;6.20;2.20;;;21.40;99.90;;;;;;4998753;28;20069;-81
2022/06/08 12:14:40;;;;;;;7.50;3.28;;;21.40;99.90;;;;;;5000486;28;20056;-82
2022/06/08 12:17:24;;;;;;;5.75;2.25;;;21.30;99.90;;;;;;4996722;28;20107;-81
2022/06/08 12:19:56;;;;;;;7.50;2.85;;;21.30;99.90;;;;;;4990449;28;20101;-81
2022/06/08 12:22:31;;;;;;;5.93;2.67;;;21.10;99.90;;;;;;4987520;28;20444;-82
2022/06/08 12:25:09;;;;;;;;;;;20.90;99.90;;;;;;4989758;28;20046;-81
2022/06/08 12:27:44;;;;;;;6.07;2.00;;;20.70;99.90;;;;;;4997881;28;19948;-79
2022/06/08 12:30:20;;;;;;;6.70;1.38;;;20.40;99.90;;;;;;4991153;28;20046;-82
2022/06/08 12:33:00;;;;;;;4.50;1.23;;;20.10;99.90;;;;;;4995707;28;20081;-81
2022/06/08 12:35:33;;;;;;;4.15;1.08;;;19.80;99.90;;;;;;4997543;28;20809;-82
2022/06/08 12:38:13;;;;;;;6.57;1.40;;;19.60;99.90;;;;;;4995797;28;20089;-82
2022/06/08 12:40:40;;;;;;;4.28;0.90;;;19.30;99.90;;;;;;5000092;28;20319;-83
2022/06/08 12:43:12;;;;;;;5.55;1.20;;;19.10;99.90;;;;;;4995824;28;20129;-82
2022/06/08 12:46:02;;;;;;;2.95;1.00;;;18.80;99.90;;;;;;4986682;28;20101;-82
2022/06/08 12:48:39;;;;;;;5.80;1.30;;;18.70;99.90;;;;;;4980921;28;20060;-81
2022/06/08 12:51:29;;;;;;;5.40;1.10;;;18.50;99.90;;;;;;4983671;28;20057;-81
2022/06/08 12:53:56;;;;;;;6.50;1.50;;;18.30;99.90;;;;;;4998016;28;20053;-82
2022/06/08 12:56:22;;;;;;;4.75;1.35;;;18.30;99.90;;;;;;4992031;28;20230;-82
2022/06/08 12:58:50;;;;;;;3.65;1.23;;;18.00;99.90;;;;;;4996392;28;20053;-83
2022/06/08 13:01:16;;;;;;;8.73;1.98;;;18.00;99.90;;;;;;4985693;28;20050;-82
2022/06/08 13:03:43;;;;;;;4.70;1.20;;;17.90;99.90;;;;;;5000888;28;20098;-82
2022/06/08 13:06:09;;;;;;;9.10;1.85;;;17.70;99.90;;;;;;4987196;28;20049;-82
2022/06/08 13:08:36;;;;;;;6.57;1.63;;;17.60;99.90;;;;;;4997832;28;20049;-82
2022/06/08 13:11:07;;;;;;;4.88;1.50;;;17.50;99.90;;;;;;4979490;28;20675;-82
2022/06/08 13:13:38;;;;;;;6.50;1.67;;;17.50;99.90;;;;;;4978761;28;20145;-82
2022/06/08 13:16:14;;;;;;;6.47;1.73;;;17.40;99.90;;;;;;4994863;28;20054;-81
2022/06/08 13:18:40;;;;;;;5.70;1.80;;;17.30;99.90;;;;;;4996195;28;20795;-81